Stanmore, United Kingdom
Current Conditions -  °F | °C
As of 11:50 AM on Friday 21 Nov 2014 (Local Time) from EGWU Reporting Station
Light Rain Light Rain  
Wind Chill: 41°   Ceiling: 1300
Heat Index: 46°   Visibility: 3mi
Dew Point: 43°   Wind: 10mph
Humidity: 87%   Direction: 130°SE
Pressure: 30.06"   Gusts: NA
Location:  51.6°N, 0.3°W
Report Text: EGWU 211150Z 13009KT 5000 -RA BKN013 OVC046 08/06 Q1018 GRN TEMPO BKN015 WHT
Loading
Personal Weather Stations






























Interactive Weather Map New forecast layout! Learn more

10-Day Weather Forecast

Advertisements
Track Severe Weather on mobile